Sto Camellia — D7LH — position and weather

sailwx.info

Track history (hours):
 
Tides and Currents Weather Stations Pressure Air Temp Water Temp Dewpoint Dewpoint Depression Visibility Wind Speed Wind Dir Waves Ship Positions

Sto Camellia

Last reported at 2017-Mar-20 02:32 UTC. Time now 2017-Mar-26 07:25 UTC.
Position N 01°14' E 103°59'.

Length 121 m; draft 8.9 m.

Type: Ship (hazmat cat C). MMSI: 440036000.

Date/timePositionNaut miles runAvg speedWind from/ knotsBaromVisibWave heightAir tempDewpointWater temp
2017-Mar-20 02:32N 01°14' E 103°59'1313.7
2017-Mar-20 01:33N 01°08' E 103°46'1111.1
2017-Mar-20 00:32N 01°04' E 103°36'7 7.1
2017-Mar-19 23:33N 01°11' E 103°38'4 3.8
2017-Mar-19 22:33N 01°15' E 103°39'1 0.7
2017-Mar-19 21:22N 01°14' E 103°39'0 0.0
2017-Mar-19 20:31N 01°14' E 103°39'0 0.0
2017-Mar-19 19:31N 01°14' E 103°39'0 0.0
2017-Mar-19 18:16N 01°14' E 103°39'0 0.0
2017-Mar-19 17:25N 01°14' E 103°39'0 0.1
2017-Mar-19 16:25N 01°14' E 103°39'0 0.0
2017-Mar-19 15:25N 01°14' E 103°39'0 0.1
2017-Mar-19 14:31N 01°14' E 103°39'0 0.1
2017-Mar-19 13:31N 01°14' E 103°39'0 0.0
2017-Mar-19 12:31N 01°14' E 103°39'0 0.0
2017-Mar-19 11:28N 01°14' E 103°39'0 0.0
2017-Mar-19 10:31N 01°14' E 103°39'0 0.0
2017-Mar-19 09:31N 01°14' E 103°39'0 0.1
2017-Mar-19 08:31N 01°14' E 103°39'0 0.0
2017-Mar-19 07:31N 01°14' E 103°39'0 0.1
2017-Mar-19 06:32N 01°14' E 103°39'2 1.8
2017-Mar-19 05:31N 01°16' E 103°39'0 0.0
2017-Mar-19 04:31N 01°16' E 103°39'0 0.0
2017-Mar-19 03:28N 01°16' E 103°39'0 0.0
2017-Mar-19 02:31N 01°16' E 103°39'0 0.0
2017-Mar-19 01:31N 01°16' E 103°39'0 0.0
2017-Mar-19 00:25N 01°16' E 103°39'0 0.0
2017-Mar-18 23:16N 01°16' E 103°39'0 0.0
2017-Mar-18 22:25N 01°16' E 103°39'0 0.0
2017-Mar-18 21:07N 01°16' E 103°39'0 0.0
2017-Mar-18 20:31N 01°16' E 103°39'0 0.0
2017-Mar-18 19:31N 01°16' E 103°39'0 0.0
2017-Mar-18 18:31N 01°16' E 103°39'0 0.0
2017-Mar-18 17:31N 01°16' E 103°39'0 0.0
2017-Mar-18 16:31N 01°16' E 103°39'0 0.0
2017-Mar-18 15:13N 01°16' E 103°39'0 0.0
2017-Mar-18 14:25N 01°16' E 103°39'0 0.0
2017-Mar-18 13:31N 01°16' E 103°39'0 0.0
2017-Mar-18 12:25N 01°16' E 103°39'0 0.0
2017-Mar-18 11:31N 01°16' E 103°39'0 0.0
2017-Mar-18 10:28N 01°16' E 103°39'0 0.0
2017-Mar-18 09:25N 01°16' E 103°39'0 0.0
2017-Mar-18 08:28N 01°16' E 103°39'0 0.0
2017-Mar-18 07:31N 01°16' E 103°39'0 0.0
2017-Mar-18 06:31N 01°16' E 103°39'0 0.0
2017-Mar-18 05:31N 01°16' E 103°39'0 0.0
2017-Mar-18 04:31N 01°16' E 103°39'0 0.0
2017-Mar-18 03:31N 01°16' E 103°39'2 1.6
2017-Mar-18 02:27N 01°14' E 103°39'3 3.0
2017-Mar-18 01:33N 01°12' E 103°40'7 7.3
2017-Mar-18 00:33N 01°10' E 103°47'1212.2
2017-Mar-17 23:33N 01°15' E 103°58'4112.0
2017-Mar-17 20:07N 01°24' E 104°38'813.1
2017-Mar-17 19:32N 01°24' E 104°46'  
Track history (hours):
 
Tides and Currents Weather Stations Pressure Air Temp Water Temp Dewpoint Dewpoint Depression Visibility Wind Speed Wind Dir Waves Ship Positions

Sto Camellia

Last reported at 2017-Mar-20 02:32 UTC. Time now 2017-Mar-26 07:25 UTC.
Position N 01°14' E 103°59'.

Length 121 m; draft 8.9 m.

Type: Ship (hazmat cat C). MMSI: 440036000.

Date/timePositionNaut miles runAvg speedWind from/ knotsBaromVisibWave heightAir tempDewpointWater temp
2017-Mar-20 02:32N 01°14' E 103°59'1313.7
2017-Mar-20 01:33N 01°08' E 103°46'1111.1
2017-Mar-20 00:32N 01°04' E 103°36'7 7.1
2017-Mar-19 23:33N 01°11' E 103°38'4 3.8
2017-Mar-19 22:33N 01°15' E 103°39'1 0.7
2017-Mar-19 21:22N 01°14' E 103°39'0 0.0
2017-Mar-19 20:31N 01°14' E 103°39'0 0.0
2017-Mar-19 19:31N 01°14' E 103°39'0 0.0
2017-Mar-19 18:16N 01°14' E 103°39'0 0.0
2017-Mar-19 17:25N 01°14' E 103°39'0 0.1
2017-Mar-19 16:25N 01°14' E 103°39'0 0.0
2017-Mar-19 15:25N 01°14' E 103°39'0 0.1
2017-Mar-19 14:31N 01°14' E 103°39'0 0.1
2017-Mar-19 13:31N 01°14' E 103°39'0 0.0
2017-Mar-19 12:31N 01°14' E 103°39'0 0.0
2017-Mar-19 11:28N 01°14' E 103°39'0 0.0
2017-Mar-19 10:31N 01°14' E 103°39'0 0.0
2017-Mar-19 09:31N 01°14' E 103°39'0 0.1
2017-Mar-19 08:31N 01°14' E 103°39'0 0.0
2017-Mar-19 07:31N 01°14' E 103°39'0 0.1
2017-Mar-19 06:32N 01°14' E 103°39'2 1.8
2017-Mar-19 05:31N 01°16' E 103°39'0 0.0
2017-Mar-19 04:31N 01°16' E 103°39'0 0.0
2017-Mar-19 03:28N 01°16' E 103°39'0 0.0
2017-Mar-19 02:31N 01°16' E 103°39'0 0.0
2017-Mar-19 01:31N 01°16' E 103°39'0 0.0
2017-Mar-19 00:25N 01°16' E 103°39'0 0.0
2017-Mar-18 23:16N 01°16' E 103°39'0 0.0
2017-Mar-18 22:25N 01°16' E 103°39'0 0.0
2017-Mar-18 21:07N 01°16' E 103°39'0 0.0
2017-Mar-18 20:31N 01°16' E 103°39'0 0.0
2017-Mar-18 19:31N 01°16' E 103°39'0 0.0
2017-Mar-18 18:31N 01°16' E 103°39'0 0.0
2017-Mar-18 17:31N 01°16' E 103°39'0 0.0
2017-Mar-18 16:31N 01°16' E 103°39'0 0.0
2017-Mar-18 15:13N 01°16' E 103°39'0 0.0
2017-Mar-18 14:25N 01°16' E 103°39'0 0.0
2017-Mar-18 13:31N 01°16' E 103°39'0 0.0
2017-Mar-18 12:25N 01°16' E 103°39'0 0.0
2017-Mar-18 11:31N 01°16' E 103°39'0 0.0
2017-Mar-18 10:28N 01°16' E 103°39'0 0.0
2017-Mar-18 09:25N 01°16' E 103°39'0 0.0
2017-Mar-18 08:28N 01°16' E 103°39'0 0.0
2017-Mar-18 07:31N 01°16' E 103°39'0 0.0
2017-Mar-18 06:31N 01°16' E 103°39'0 0.0
2017-Mar-18 05:31N 01°16' E 103°39'0 0.0
2017-Mar-18 04:31N 01°16' E 103°39'0 0.0
2017-Mar-18 03:31N 01°16' E 103°39'2 1.6
2017-Mar-18 02:27N 01°14' E 103°39'3 3.0
2017-Mar-18 01:33N 01°12' E 103°40'7 7.3
2017-Mar-18 00:33N 01°10' E 103°47'1212.2
2017-Mar-17 23:33N 01°15' E 103°58'4112.0
2017-Mar-17 20:07N 01°24' E 104°38'813.1
2017-Mar-17 19:32N 01°24' E 104°46'  

Dump ship's entire track history